sensor_id;sensor_type;location;lat;lon;timestamp;temperature;humidity
29731;DHT22;16639;51.488;0.152;2023-03-15T00:03:05;6.60;99.90
29731;DHT22;16639;51.488;0.152;2023-03-15T00:09:58;6.60;99.90
29731;DHT22;16639;51.488;0.152;2023-03-15T00:12:52;6.60;99.90
29731;DHT22;16639;51.488;0.152;2023-03-15T00:37:21;6.40;99.90
29731;DHT22;16639;51.488;0.152;2023-03-15T00:40:57;6.30;99.90
29731;DHT22;16639;51.488;0.152;2023-03-15T00:47:44;6.30;99.90
29731;DHT22;16639;51.488;0.152;2023-03-15T01:03:23;6.30;99.90
29731;DHT22;16639;51.488;0.152;2023-03-15T01:29:34;6.20;99.90
29731;DHT22;16639;51.488;0.152;2023-03-15T01:33:14;6.10;99.90
29731;DHT22;16639;51.488;0.152;2023-03-15T01:35:56;6.10;99.90
29731;DHT22;16639;51.488;0.152;2023-03-15T01:39:52;6.00;99.90
29731;DHT22;16639;51.488;0.152;2023-03-15T01:50:21;5.80;99.90
29731;DHT22;16639;51.488;0.152;2023-03-15T01:53:30;5.80;99.90
29731;DHT22;16639;51.488;0.152;2023-03-15T02:04:27;5.60;99.90
29731;DHT22;16639;51.488;0.152;2023-03-15T02:16:00;6.90;99.90
29731;DHT22;16639;51.488;0.152;2023-03-15T02:18:46;5.40;99.90
29731;DHT22;16639;51.488;0.152;2023-03-15T02:21:46;5.30;99.90
29731;DHT22;16639;51.488;0.152;2023-03-15T02:28:51;5.20;99.90
29731;DHT22;16639;51.488;0.152;2023-03-15T02:31:55;5.20;99.90
29731;DHT22;16639;51.488;0.152;2023-03-15T02:40:21;5.80;99.90
29731;DHT22;16639;51.488;0.152;2023-03-15T02:52:15;5.40;99.90
29731;DHT22;16639;51.488;0.152;2023-03-15T03:02:35;5.50;99.90
29731;DHT22;16639;51.488;0.152;2023-03-15T03:10:35;5.30;99.90
29731;DHT22;16639;51.488;0.152;2023-03-15T03:21:24;5.40;99.90
29731;DHT22;16639;51.488;0.152;2023-03-15T03:24:33;5.50;99.90
29731;DHT22;16639;51.488;0.152;2023-03-15T03:31:34;5.40;99.90
29731;DHT22;16639;51.488;0.152;2023-03-15T03:35:31;5.40;99.90
29731;DHT22;16639;51.488;0.152;2023-03-15T04:09:28;5.00;99.90
29731;DHT22;16639;51.488;0.152;2023-03-15T04:18:03;4.80;99.90
29731;DHT22;16639;51.488;0.152;2023-03-15T04:21:12;4.80;99.90
29731;DHT22;16639;51.488;0.152;2023-03-15T04:25:03;4.80;99.90
29731;DHT22;16639;51.488;0.152;2023-03-15T04:28:31;4.60;99.90
29731;DHT22;16639;51.488;0.152;2023-03-15T04:44:57;4.30;99.90
29731;DHT22;16639;51.488;0.152;2023-03-15T04:59:29;4.30;99.90
29731;DHT22;16639;51.488;0.152;2023-03-15T05:07:03;4.20;99.90
29731;DHT22;16639;51.488;0.152;2023-03-15T05:33:42;4.00;99.90
29731;DHT22;16639;51.488;0.152;2023-03-15T05:37:17;4.00;99.90
29731;DHT22;16639;51.488;0.152;2023-03-15T05:40:07;3.90;99.90
29731;DHT22;16639;51.488;0.152;2023-03-15T05:47:19;3.80;99.90
29731;DHT22;16639;51.488;0.152;2023-03-15T05:58:38;3.70;99.90
29731;DHT22;16639;51.488;0.152;2023-03-15T06:01:50;3.80;99.90
29731;DHT22;16639;51.488;0.152;2023-03-15T06:12:50;3.90;99.90
29731;DHT22;16639;51.488;0.152;2023-03-15T06:16:02;3.90;99.90
29731;DHT22;16639;51.488;0.152;2023-03-15T06:19:17;3.90;99.90
29731;DHT22;16639;51.488;0.152;2023-03-15T06:22:39;3.90;99.90
29731;DHT22;16639;51.488;0.152;2023-03-15T06:40:25;3.90;99.90
29731;DHT22;16639;51.488;0.152;2023-03-15T06:42:53;3.80;99.90
29731;DHT22;16639;51.488;0.152;2023-03-15T06:45:24;4.40;99.90
29731;DHT22;16639;51.488;0.152;2023-03-15T06:47:52;4.90;99.90
29731;DHT22;16639;51.488;0.152;2023-03-15T06:50:21;3.80;99.90
29731;DHT22;16639;51.488;0.152;2023-03-15T06:52:48;4.10;99.90
29731;DHT22;16639;51.488;0.152;2023-03-15T06:55:26;3.80;99.90
29731;DHT22;16639;51.488;0.152;2023-03-15T06:57:58;3.80;99.90
29731;DHT22;16639;51.488;0.152;2023-03-15T07:00:28;3.90;99.90
29731;DHT22;16639;51.488;0.152;2023-03-15T07:02:58;3.90;99.90
29731;DHT22;16639;51.488;0.152;2023-03-15T07:05:27;4.90;99.90
29731;DHT22;16639;51.488;0.152;2023-03-15T07:07:58;3.90;99.90
29731;DHT22;16639;51.488;0.152;2023-03-15T07:10:26;3.90;99.90
29731;DHT22;16639;51.488;0.152;2023-03-15T07:12:55;4.00;99.90
29731;DHT22;16639;51.488;0.152;2023-03-15T07:15:22;4.00;99.90
29731;DHT22;16639;51.488;0.152;2023-03-15T07:17:51;4.10;99.90
29731;DHT22;16639;51.488;0.152;2023-03-15T07:20:18;4.10;99.90
29731;DHT22;16639;51.488;0.152;2023-03-15T07:22:50;4.10;99.90
29731;DHT22;16639;51.488;0.152;2023-03-15T07:25:18;4.10;99.90
29731;DHT22;16639;51.488;0.152;2023-03-15T07:27:50;4.20;99.90
29731;DHT22;16639;51.488;0.152;2023-03-15T07:30:19;4.20;99.90
29731;DHT22;16639;51.488;0.152;2023-03-15T07:32:47;4.20;99.90
29731;DHT22;16639;51.488;0.152;2023-03-15T07:35:22;4.40;99.90
29731;DHT22;16639;51.488;0.152;2023-03-15T07:37:50;4.30;99.90
29731;DHT22;16639;51.488;0.152;2023-03-15T07:40:17;4.40;99.90
29731;DHT22;16639;51.488;0.152;2023-03-15T07:42:52;4.90;99.90
29731;DHT22;16639;51.488;0.152;2023-03-15T07:45:20;4.40;99.90
29731;DHT22;16639;51.488;0.152;2023-03-15T07:47:47;4.40;99.90
29731;DHT22;16639;51.488;0.152;2023-03-15T07:50:15;4.50;99.90
29731;DHT22;16639;51.488;0.152;2023-03-15T07:52:43;4.50;99.90
29731;DHT22;16639;51.488;0.152;2023-03-15T07:55:11;4.50;99.90
29731;DHT22;16639;51.488;0.152;2023-03-15T07:57:38;4.50;99.90
29731;DHT22;16639;51.488;0.152;2023-03-15T08:00:06;4.50;99.90
29731;DHT22;16639;51.488;0.152;2023-03-15T08:02:35;4.60;99.90
29731;DHT22;16639;51.488;0.152;2023-03-15T08:05:02;4.70;99.90
29731;DHT22;16639;51.488;0.152;2023-03-15T08:07:31;4.70;99.90
29731;DHT22;16639;51.488;0.152;2023-03-15T08:09:59;4.80;99.90
29731;DHT22;16639;51.488;0.152;2023-03-15T08:12:28;4.80;99.90
29731;DHT22;16639;51.488;0.152;2023-03-15T08:14:57;5.10;99.90
29731;DHT22;16639;51.488;0.152;2023-03-15T08:17:24;4.90;99.90
29731;DHT22;16639;51.488;0.152;2023-03-15T08:19:52;5.00;99.90
29731;DHT22;16639;51.488;0.152;2023-03-15T08:22:22;5.00;99.90
29731;DHT22;16639;51.488;0.152;2023-03-15T08:24:50;5.10;99.90
29731;DHT22;16639;51.488;0.152;2023-03-15T08:27:19;5.20;99.90
29731;DHT22;16639;51.488;0.152;2023-03-15T08:29:48;5.20;99.90
29731;DHT22;16639;51.488;0.152;2023-03-15T08:32:16;5.40;99.90
29731;DHT22;16639;51.488;0.152;2023-03-15T08:34:44;5.40;99.90
29731;DHT22;16639;51.488;0.152;2023-03-15T08:37:12;5.80;99.90
29731;DHT22;16639;51.488;0.152;2023-03-15T08:39:40;5.50;99.90
29731;DHT22;16639;51.488;0.152;2023-03-15T08:42:07;5.60;99.90
29731;DHT22;16639;51.488;0.152;2023-03-15T08:44:36;5.70;99.90
29731;DHT22;16639;51.488;0.152;2023-03-15T08:47:03;6.90;99.90
29731;DHT22;16639;51.488;0.152;2023-03-15T08:49:34;5.70;99.90
29731;DHT22;16639;51.488;0.152;2023-03-15T08:52:01;5.70;99.90
29731;DHT22;16639;51.488;0.152;2023-03-15T08:54:29;6.20;99.90
29731;DHT22;16639;51.488;0.152;2023-03-15T08:56:57;5.80;99.90
29731;DHT22;16639;51.488;0.152;2023-03-15T08:59:25;7.20;99.90
29731;DHT22;16639;51.488;0.152;2023-03-15T09:01:59;6.00;99.90
29731;DHT22;16639;51.488;0.152;2023-03-15T09:04:27;6.00;99.90
29731;DHT22;16639;51.488;0.152;2023-03-15T09:06:54;6.10;99.90
29731;DHT22;16639;51.488;0.152;2023-03-15T09:09:23;6.10;99.90
29731;DHT22;16639;51.488;0.152;2023-03-15T09:11:50;6.20;99.90
29731;DHT22;16639;51.488;0.152;2023-03-15T09:14:19;6.20;99.90
29731;DHT22;16639;51.488;0.152;2023-03-15T09:16:48;6.30;99.90
29731;DHT22;16639;51.488;0.152;2023-03-15T09:19:15;6.30;99.90
29731;DHT22;16639;51.488;0.152;2023-03-15T09:21:45;6.30;99.90
29731;DHT22;16639;51.488;0.152;2023-03-15T09:24:13;6.30;99.90
29731;DHT22;16639;51.488;0.152;2023-03-15T09:26:40;6.30;99.90
29731;DHT22;16639;51.488;0.152;2023-03-15T09:29:08;6.50;99.90
29731;DHT22;16639;51.488;0.152;2023-03-15T09:31:35;6.50;99.90
29731;DHT22;16639;51.488;0.152;2023-03-15T09:34:03;6.50;99.90
29731;DHT22;16639;51.488;0.152;2023-03-15T09:36:32;6.50;99.90
29731;DHT22;16639;51.488;0.152;2023-03-15T09:39:01;6.90;99.90
29731;DHT22;16639;51.488;0.152;2023-03-15T09:41:44;6.70;99.90
29731;DHT22;16639;51.488;0.152;2023-03-15T09:44:24;6.70;99.90
29731;DHT22;16639;51.488;0.152;2023-03-15T09:47:06;6.80;99.90
29731;DHT22;16639;51.488;0.152;2023-03-15T09:52:25;6.90;99.90
29731;DHT22;16639;51.488;0.152;2023-03-15T09:55:13;7.00;99.90
29731;DHT22;16639;51.488;0.152;2023-03-15T09:58:04;7.00;99.90
29731;DHT22;16639;51.488;0.152;2023-03-15T10:00:39;7.60;99.90
29731;DHT22;16639;51.488;0.152;2023-03-15T10:03:20;7.10;99.90
29731;DHT22;16639;51.488;0.152;2023-03-15T10:05:57;7.20;99.90
29731;DHT22;16639;51.488;0.152;2023-03-15T10:08:26;7.30;99.90
29731;DHT22;16639;51.488;0.152;2023-03-15T10:11:11;8.30;99.90
29731;DHT22;16639;51.488;0.152;2023-03-15T10:19:49;7.60;99.90
29731;DHT22;16639;51.488;0.152;2023-03-15T10:25:12;7.60;99.90
29731;DHT22;16639;51.488;0.152;2023-03-15T10:30:32;7.70;99.90
29731;DHT22;16639;51.488;0.152;2023-03-15T10:33:04;7.70;99.90
29731;DHT22;16639;51.488;0.152;2023-03-15T10:35:37;7.80;99.90
29731;DHT22;16639;51.488;0.152;2023-03-15T10:38:19;7.80;99.90
29731;DHT22;16639;51.488;0.152;2023-03-15T10:40:55;7.90;99.90
29731;DHT22;16639;51.488;0.152;2023-03-15T10:43:24;7.90;99.90
29731;DHT22;16639;51.488;0.152;2023-03-15T10:51:29;8.10;99.90
29731;DHT22;16639;51.488;0.152;2023-03-15T10:54:07;8.10;99.90
29731;DHT22;16639;51.488;0.152;2023-03-15T10:59:28;8.20;99.90
29731;DHT22;16639;51.488;0.152;2023-03-15T11:05:28;8.20;99.90
29731;DHT22;16639;51.488;0.152;2023-03-15T11:07:33;8.20;99.90
29731;DHT22;16639;51.488;0.152;2023-03-15T11:10:04;8.40;99.90
29731;DHT22;16639;51.488;0.152;2023-03-15T11:12:33;8.40;99.90
29731;DHT22;16639;51.488;0.152;2023-03-15T11:15:10;8.40;99.90
29731;DHT22;16639;51.488;0.152;2023-03-15T11:17:46;8.50;99.90
29731;DHT22;16639;51.488;0.152;2023-03-15T11:22:54;8.60;99.90
29731;DHT22;16639;51.488;0.152;2023-03-15T11:25:25;8.60;99.90
29731;DHT22;16639;51.488;0.152;2023-03-15T11:27:56;8.60;99.90
29731;DHT22;16639;51.488;0.152;2023-03-15T11:30:29;8.70;99.90
29731;DHT22;16639;51.488;0.152;2023-03-15T11:33:00;8.70;99.90
29731;DHT22;16639;51.488;0.152;2023-03-15T11:35:42;8.70;99.90
29731;DHT22;16639;51.488;0.152;2023-03-15T11:38:38;8.70;99.90
29731;DHT22;16639;51.488;0.152;2023-03-15T11:43:58;8.70;99.90
29731;DHT22;16639;51.488;0.152;2023-03-15T11:46:36;8.80;99.90
29731;DHT22;16639;51.488;0.152;2023-03-15T11:49:18;8.90;99.90
29731;DHT22;16639;51.488;0.152;2023-03-15T11:51:50;8.90;99.90
29731;DHT22;16639;51.488;0.152;2023-03-15T11:54:24;9.00;99.90
29731;DHT22;16639;51.488;0.152;2023-03-15T12:12:57;9.10;99.90
29731;DHT22;16639;51.488;0.152;2023-03-15T12:17:58;8.80;99.90
29731;DHT22;16639;51.488;0.152;2023-03-15T12:23:11;9.20;99.90
29731;DHT22;16639;51.488;0.152;2023-03-15T12:25:53;9.20;99.90
29731;DHT22;16639;51.488;0.152;2023-03-15T12:28:33;9.30;99.90
29731;DHT22;16639;51.488;0.152;2023-03-15T12:31:05;9.30;99.90
29731;DHT22;16639;51.488;0.152;2023-03-15T12:33:51;9.40;99.90
29731;DHT22;16639;51.488;0.152;2023-03-15T12:36:35;9.40;99.90
29731;DHT22;16639;51.488;0.152;2023-03-15T12:41:45;9.40;99.90
29731;DHT22;16639;51.488;0.152;2023-03-15T12:47:06;9.50;99.90
29731;DHT22;16639;51.488;0.152;2023-03-15T12:49:39;9.50;99.90
29731;DHT22;16639;51.488;0.152;2023-03-15T12:54:53;9.60;99.90
29731;DHT22;16639;51.488;0.152;2023-03-15T12:57:28;9.60;99.90
29731;DHT22;16639;51.488;0.152;2023-03-15T13:00:04;9.50;99.90
29731;DHT22;16639;51.488;0.152;2023-03-15T13:02:35;9.50;99.90
29731;DHT22;16639;51.488;0.152;2023-03-15T13:05:23;9.60;99.90
29731;DHT22;16639;51.488;0.152;2023-03-15T13:08:08;9.60;99.90
29731;DHT22;16639;51.488;0.152;2023-03-15T13:16:23;9.60;99.90
29731;DHT22;16639;51.488;0.152;2023-03-15T13:19:01;9.60;99.90
29731;DHT22;16639;51.488;0.152;2023-03-15T13:21:38;9.60;99.90
29731;DHT22;16639;51.488;0.152;2023-03-15T13:24:10;9.80;99.90
29731;DHT22;16639;51.488;0.152;2023-03-15T13:26:44;9.60;99.90
29731;DHT22;16639;51.488;0.152;2023-03-15T13:29:21;9.60;99.90
29731;DHT22;16639;51.488;0.152;2023-03-15T13:34:40;9.70;99.90
29731;DHT22;16639;51.488;0.152;2023-03-15T13:37:24;9.70;99.90
29731;DHT22;16639;51.488;0.152;2023-03-15T13:40:27;9.70;99.90
29731;DHT22;16639;51.488;0.152;2023-03-15T13:42:46;9.80;99.90
29731;DHT22;16639;51.488;0.152;2023-03-15T13:45:15;9.80;99.90
29731;DHT22;16639;51.488;0.152;2023-03-15T13:47:44;9.80;99.90
29731;DHT22;16639;51.488;0.152;2023-03-15T13:50:18;9.80;99.90
29731;DHT22;16639;51.488;0.152;2023-03-15T13:52:50;9.80;99.90
29731;DHT22;16639;51.488;0.152;2023-03-15T13:55:32;9.50;99.90
29731;DHT22;16639;51.488;0.152;2023-03-15T13:58:06;9.90;99.90
29731;DHT22;16639;51.488;0.152;2023-03-15T14:00:35;9.90;99.90
29731;DHT22;16639;51.488;0.152;2023-03-15T14:03:15;9.80;99.90
29731;DHT22;16639;51.488;0.152;2023-03-15T14:05:48;9.80;99.90
29731;DHT22;16639;51.488;0.152;2023-03-15T14:13:30;9.70;99.90
29731;DHT22;16639;51.488;0.152;2023-03-15T14:16:00;9.70;99.90
29731;DHT22;16639;51.488;0.152;2023-03-15T14:18:36;9.70;99.90
29731;DHT22;16639;51.488;0.152;2023-03-15T14:21:17;9.70;99.90
29731;DHT22;16639;51.488;0.152;2023-03-15T14:23:47;9.70;99.90
29731;DHT22;16639;51.488;0.152;2023-03-15T14:26:22;9.70;99.90
29731;DHT22;16639;51.488;0.152;2023-03-15T14:28:58;9.70;99.90
29731;DHT22;16639;51.488;0.152;2023-03-15T14:31:32;9.80;99.90
29731;DHT22;16639;51.488;0.152;2023-03-15T14:34:23;9.80;99.90
29731;DHT22;16639;51.488;0.152;2023-03-15T14:36:52;9.70;99.90
29731;DHT22;16639;51.488;0.152;2023-03-15T14:39:40;9.60;99.90
29731;DHT22;16639;51.488;0.152;2023-03-15T14:42:11;9.30;99.90
29731;DHT22;16639;51.488;0.152;2023-03-15T14:44:38;9.70;99.90
29731;DHT22;16639;51.488;0.152;2023-03-15T14:47:11;9.70;99.90
29731;DHT22;16639;51.488;0.152;2023-03-15T14:49:42;9.70;99.90
29731;DHT22;16639;51.488;0.152;2023-03-15T14:52:12;9.70;99.90
29731;DHT22;16639;51.488;0.152;2023-03-15T14:54:46;9.70;99.90
29731;DHT22;16639;51.488;0.152;2023-03-15T14:57:14;9.80;99.90
29731;DHT22;16639;51.488;0.152;2023-03-15T14:59:42;9.80;99.90
29731;DHT22;16639;51.488;0.152;2023-03-15T15:02:15;9.80;99.90
29731;DHT22;16639;51.488;0.152;2023-03-15T15:04:44;9.80;99.90
29731;DHT22;16639;51.488;0.152;2023-03-15T15:07:14;9.70;99.90
29731;DHT22;16639;51.488;0.152;2023-03-15T15:09:47;9.70;99.90
29731;DHT22;16639;51.488;0.152;2023-03-15T15:12:16;9.60;99.90
29731;DHT22;16639;51.488;0.152;2023-03-15T15:14:45;9.50;99.90
29731;DHT22;16639;51.488;0.152;2023-03-15T15:17:12;9.50;99.90
29731;DHT22;16639;51.488;0.152;2023-03-15T15:19:40;9.50;99.90
29731;DHT22;16639;51.488;0.152;2023-03-15T15:22:09;9.50;99.90
29731;DHT22;16639;51.488;0.152;2023-03-15T15:24:37;9.40;99.90
29731;DHT22;16639;51.488;0.152;2023-03-15T15:27:04;9.40;99.90
29731;DHT22;16639;51.488;0.152;2023-03-15T15:29:32;9.50;99.90
29731;DHT22;16639;51.488;0.152;2023-03-15T15:32:00;9.50;99.90
29731;DHT22;16639;51.488;0.152;2023-03-15T15:34:27;9.40;99.90
29731;DHT22;16639;51.488;0.152;2023-03-15T15:36:55;9.40;99.90
29731;DHT22;16639;51.488;0.152;2023-03-15T15:39:25;9.40;99.90
29731;DHT22;16639;51.488;0.152;2023-03-15T15:41:55;9.40;99.90
29731;DHT22;16639;51.488;0.152;2023-03-15T15:44:26;9.40;99.90
29731;DHT22;16639;51.488;0.152;2023-03-15T15:46:53;9.40;99.90
29731;DHT22;16639;51.488;0.152;2023-03-15T15:49:21;9.40;99.90
29731;DHT22;16639;51.488;0.152;2023-03-15T15:51:50;9.40;99.90
29731;DHT22;16639;51.488;0.152;2023-03-15T15:54:26;9.40;99.90
29731;DHT22;16639;51.488;0.152;2023-03-15T15:56:57;9.40;99.90
29731;DHT22;16639;51.488;0.152;2023-03-15T15:59:25;9.30;99.90
29731;DHT22;16639;51.488;0.152;2023-03-15T16:01:54;9.30;99.90
29731;DHT22;16639;51.488;0.152;2023-03-15T16:04:29;9.30;99.90
29731;DHT22;16639;51.488;0.152;2023-03-15T16:07:01;9.30;99.90
29731;DHT22;16639;51.488;0.152;2023-03-15T16:09:31;9.20;99.90
29731;DHT22;16639;51.488;0.152;2023-03-15T16:12:07;9.20;99.90
29731;DHT22;16639;51.488;0.152;2023-03-15T16:14:42;9.20;99.90
29731;DHT22;16639;51.488;0.152;2023-03-15T16:17:20;9.20;99.90
29731;DHT22;16639;51.488;0.152;2023-03-15T16:19:49;9.70;99.90
29731;DHT22;16639;51.488;0.152;2023-03-15T16:22:19;9.10;99.90
29731;DHT22;16639;51.488;0.152;2023-03-15T16:24:52;9.20;99.90
29731;DHT22;16639;51.488;0.152;2023-03-15T16:27:22;9.10;99.90
29731;DHT22;16639;51.488;0.152;2023-03-15T16:29:53;9.20;99.90
29731;DHT22;16639;51.488;0.152;2023-03-15T16:32:24;9.80;99.90
29731;DHT22;16639;51.488;0.152;2023-03-15T16:35:11;9.10;99.90
29731;DHT22;16639;51.488;0.152;2023-03-15T16:37:43;9.10;99.90
29731;DHT22;16639;51.488;0.152;2023-03-15T16:40:20;9.10;99.90
29731;DHT22;16639;51.488;0.152;2023-03-15T16:42:49;9.10;99.90
29731;DHT22;16639;51.488;0.152;2023-03-15T16:45:17;8.90;99.90
29731;DHT22;16639;51.488;0.152;2023-03-15T16:47:45;8.90;99.90
29731;DHT22;16639;51.488;0.152;2023-03-15T16:50:16;8.90;99.90
29731;DHT22;16639;51.488;0.152;2023-03-15T16:52:45;8.80;99.90
29731;DHT22;16639;51.488;0.152;2023-03-15T16:55:16;8.80;99.90
29731;DHT22;16639;51.488;0.152;2023-03-15T16:57:45;8.80;99.90
29731;DHT22;16639;51.488;0.152;2023-03-15T17:00:16;8.80;99.90
29731;DHT22;16639;51.488;0.152;2023-03-15T17:06:55;8.70;99.90
29731;DHT22;16639;51.488;0.152;2023-03-15T17:09:23;8.70;99.90
29731;DHT22;16639;51.488;0.152;2023-03-15T17:11:51;8.70;99.90
29731;DHT22;16639;51.488;0.152;2023-03-15T17:14:29;8.60;99.90
29731;DHT22;16639;51.488;0.152;2023-03-15T17:16:58;8.60;99.90
29731;DHT22;16639;51.488;0.152;2023-03-15T17:19:32;9.00;99.90
29731;DHT22;16639;51.488;0.152;2023-03-15T17:30:40;8.60;99.90
29731;DHT22;16639;51.488;0.152;2023-03-15T17:43:03;8.40;99.90
29731;DHT22;16639;51.488;0.152;2023-03-15T17:59:59;8.20;99.90
29731;DHT22;16639;51.488;0.152;2023-03-15T18:07:25;8.20;99.90
29731;DHT22;16639;51.488;0.152;2023-03-15T18:15:17;8.30;99.90
29731;DHT22;16639;51.488;0.152;2023-03-15T18:17:45;8.10;99.90
29731;DHT22;16639;51.488;0.152;2023-03-15T18:20:14;8.10;99.90
29731;DHT22;16639;51.488;0.152;2023-03-15T18:22:41;8.10;99.90
29731;DHT22;16639;51.488;0.152;2023-03-15T18:25:22;8.40;99.90
29731;DHT22;16639;51.488;0.152;2023-03-15T18:27:50;8.10;99.90
29731;DHT22;16639;51.488;0.152;2023-03-15T18:30:20;8.10;99.90
29731;DHT22;16639;51.488;0.152;2023-03-15T18:33:12;8.10;99.90
29731;DHT22;16639;51.488;0.152;2023-03-15T18:49:50;8.30;99.90
29731;DHT22;16639;51.488;0.152;2023-03-15T18:52:27;8.10;99.90
29731;DHT22;16639;51.488;0.152;2023-03-15T18:55:00;8.00;99.90
29731;DHT22;16639;51.488;0.152;2023-03-15T18:57:27;8.00;99.90
29731;DHT22;16639;51.488;0.152;2023-03-15T19:00:02;8.00;99.90
29731;DHT22;16639;51.488;0.152;2023-03-15T19:02:41;8.00;99.90
29731;DHT22;16639;51.488;0.152;2023-03-15T19:05:10;8.00;99.90
29731;DHT22;16639;51.488;0.152;2023-03-15T19:07:38;7.90;99.90
29731;DHT22;16639;51.488;0.152;2023-03-15T19:10:08;8.00;99.90
29731;DHT22;16639;51.488;0.152;2023-03-15T19:12:36;8.00;99.90
29731;DHT22;16639;51.488;0.152;2023-03-15T19:15:05;7.90;99.90
29731;DHT22;16639;51.488;0.152;2023-03-15T19:17:33;7.90;99.90
29731;DHT22;16639;51.488;0.152;2023-03-15T19:20:01;7.70;99.90
29731;DHT22;16639;51.488;0.152;2023-03-15T19:22:29;7.80;99.90
29731;DHT22;16639;51.488;0.152;2023-03-15T19:24:58;7.90;99.90
29731;DHT22;16639;51.488;0.152;2023-03-15T19:27:26;7.80;99.90
29731;DHT22;16639;51.488;0.152;2023-03-15T19:29:54;8.40;99.90
29731;DHT22;16639;51.488;0.152;2023-03-15T19:32:21;7.90;99.90
29731;DHT22;16639;51.488;0.152;2023-03-15T19:34:50;7.90;99.90
29731;DHT22;16639;51.488;0.152;2023-03-15T19:37:17;7.90;99.90
29731;DHT22;16639;51.488;0.152;2023-03-15T19:39:45;7.90;99.90
29731;DHT22;16639;51.488;0.152;2023-03-15T19:42:13;7.90;99.90
29731;DHT22;16639;51.488;0.152;2023-03-15T19:44:40;7.80;99.90
29731;DHT22;16639;51.488;0.152;2023-03-15T19:47:10;7.80;99.90
29731;DHT22;16639;51.488;0.152;2023-03-15T19:49:38;7.90;99.90
29731;DHT22;16639;51.488;0.152;2023-03-15T20:18:16;7.90;99.90
29731;DHT22;16639;51.488;0.152;2023-03-15T20:47:31;7.80;99.90
29731;DHT22;16639;51.488;0.152;2023-03-15T21:08:46;7.90;99.90
29731;DHT22;16639;51.488;0.152;2023-03-15T21:15:52;7.90;99.90
29731;DHT22;16639;51.488;0.152;2023-03-15T21:19:34;7.80;99.90
29731;DHT22;16639;51.488;0.152;2023-03-15T21:27:01;7.80;99.90
29731;DHT22;16639;51.488;0.152;2023-03-15T21:29:47;7.80;99.90
29731;DHT22;16639;51.488;0.152;2023-03-15T21:37:03;7.90;99.90
29731;DHT22;16639;51.488;0.152;2023-03-15T21:48:19;7.80;99.90
29731;DHT22;16639;51.488;0.152;2023-03-15T21:59:40;7.80;99.90
29731;DHT22;16639;51.488;0.152;2023-03-15T22:02:10;7.80;99.90
29731;DHT22;16639;51.488;0.152;2023-03-15T22:04:51;8.70;99.90
29731;DHT22;16639;51.488;0.152;2023-03-15T22:15:10;7.80;99.90
29731;DHT22;16639;51.488;0.152;2023-03-15T22:17:38;7.80;99.90
29731;DHT22;16639;51.488;0.152;2023-03-15T22:20:07;7.80;99.90
29731;DHT22;16639;51.488;0.152;2023-03-15T22:22:46;7.80;99.90
29731;DHT22;16639;51.488;0.152;2023-03-15T22:25:15;7.80;99.90
29731;DHT22;16639;51.488;0.152;2023-03-15T22:27:43;7.80;99.90
29731;DHT22;16639;51.488;0.152;2023-03-15T22:30:12;7.80;99.90
29731;DHT22;16639;51.488;0.152;2023-03-15T22:32:40;7.80;99.90
29731;DHT22;16639;51.488;0.152;2023-03-15T22:35:14;7.80;99.90
29731;DHT22;16639;51.488;0.152;2023-03-15T22:37:42;7.80;99.90
29731;DHT22;16639;51.488;0.152;2023-03-15T22:40:12;7.90;99.90
29731;DHT22;16639;51.488;0.152;2023-03-15T22:42:47;7.80;99.90
29731;DHT22;16639;51.488;0.152;2023-03-15T22:45:18;7.80;99.90
29731;DHT22;16639;51.488;0.152;2023-03-15T22:47:47;7.80;99.90
29731;DHT22;16639;51.488;0.152;2023-03-15T22:50:15;7.80;99.90
29731;DHT22;16639;51.488;0.152;2023-03-15T22:52:42;7.80;99.90
29731;DHT22;16639;51.488;0.152;2023-03-15T22:55:10;7.80;99.90
29731;DHT22;16639;51.488;0.152;2023-03-15T22:57:38;7.80;99.90
29731;DHT22;16639;51.488;0.152;2023-03-15T23:00:08;7.80;99.90
29731;DHT22;16639;51.488;0.152;2023-03-15T23:02:41;7.80;99.90
29731;DHT22;16639;51.488;0.152;2023-03-15T23:05:10;7.80;99.90
29731;DHT22;16639;51.488;0.152;2023-03-15T23:07:38;7.80;99.90
29731;DHT22;16639;51.488;0.152;2023-03-15T23:10:06;8.50;99.90
29731;DHT22;16639;51.488;0.152;2023-03-15T23:12:37;7.80;99.90
29731;DHT22;16639;51.488;0.152;2023-03-15T23:15:05;7.80;99.90
29731;DHT22;16639;51.488;0.152;2023-03-15T23:17:34;7.80;99.90
29731;DHT22;16639;51.488;0.152;2023-03-15T23:20:02;7.80;99.90
29731;DHT22;16639;51.488;0.152;2023-03-15T23:22:33;7.80;99.90
29731;DHT22;16639;51.488;0.152;2023-03-15T23:25:01;7.80;99.90
29731;DHT22;16639;51.488;0.152;2023-03-15T23:27:29;7.80;99.90
29731;DHT22;16639;51.488;0.152;2023-03-15T23:29:57;7.70;99.90
29731;DHT22;16639;51.488;0.152;2023-03-15T23:32:26;7.70;99.90
29731;DHT22;16639;51.488;0.152;2023-03-15T23:34:54;7.70;99.90
29731;DHT22;16639;51.488;0.152;2023-03-15T23:37:22;7.70;99.90
29731;DHT22;16639;51.488;0.152;2023-03-15T23:39:54;7.60;99.90
29731;DHT22;16639;51.488;0.152;2023-03-15T23:42:22;7.60;99.90
29731;DHT22;16639;51.488;0.152;2023-03-15T23:44:54;7.70;99.90
29731;DHT22;16639;51.488;0.152;2023-03-15T23:47:22;7.70;99.90
29731;DHT22;16639;51.488;0.152;2023-03-15T23:49:51;7.60;99.90
29731;DHT22;16639;51.488;0.152;2023-03-15T23:52:19;7.70;99.90
29731;DHT22;16639;51.488;0.152;2023-03-15T23:54:52;7.70;99.90
29731;DHT22;16639;51.488;0.152;2023-03-15T23:57:20;7.60;99.90
29731;DHT22;16639;51.488;0.152;2023-03-15T23:59:47;7.70;99.90
